sensor_id;sensor_type;location;lat;lon;timestamp;temperature;humidity
51783;DHT22;37845;53.196;5.638;2022-12-04T00:00:47;1.70;99.90
51783;DHT22;37845;53.196;5.638;2022-12-04T00:03:13;1.60;99.90
51783;DHT22;37845;53.196;5.638;2022-12-04T00:05:39;1.60;99.90
51783;DHT22;37845;53.196;5.638;2022-12-04T00:08:04;3.00;99.90
51783;DHT22;37845;53.196;5.638;2022-12-04T00:10:30;1.60;99.90
51783;DHT22;37845;53.196;5.638;2022-12-04T00:12:55;1.60;99.90
51783;DHT22;37845;53.196;5.638;2022-12-04T00:15:21;1.60;99.90
51783;DHT22;37845;53.196;5.638;2022-12-04T00:17:47;1.60;99.90
51783;DHT22;37845;53.196;5.638;2022-12-04T00:20:13;1.80;99.90
51783;DHT22;37845;53.196;5.638;2022-12-04T00:22:38;1.50;99.90
51783;DHT22;37845;53.196;5.638;2022-12-04T00:25:04;1.60;99.90
51783;DHT22;37845;53.196;5.638;2022-12-04T00:27:30;1.50;99.90
51783;DHT22;37845;53.196;5.638;2022-12-04T00:29:55;1.50;99.90
51783;DHT22;37845;53.196;5.638;2022-12-04T00:32:21;1.50;99.90
51783;DHT22;37845;53.196;5.638;2022-12-04T00:34:47;1.50;99.90
51783;DHT22;37845;53.196;5.638;2022-12-04T00:37:12;1.50;99.90
51783;DHT22;37845;53.196;5.638;2022-12-04T00:39:38;2.20;99.90
51783;DHT22;37845;53.196;5.638;2022-12-04T00:42:03;1.50;99.90
51783;DHT22;37845;53.196;5.638;2022-12-04T00:44:29;1.50;99.90
51783;DHT22;37845;53.196;5.638;2022-12-04T00:46:55;2.60;99.90
51783;DHT22;37845;53.196;5.638;2022-12-04T00:49:20;1.50;99.90
51783;DHT22;37845;53.196;5.638;2022-12-04T00:51:46;1.50;99.90
51783;DHT22;37845;53.196;5.638;2022-12-04T00:54:11;2.60;99.90
51783;DHT22;37845;53.196;5.638;2022-12-04T00:56:37;1.50;99.90
51783;DHT22;37845;53.196;5.638;2022-12-04T00:59:03;1.90;99.90
51783;DHT22;37845;53.196;5.638;2022-12-04T01:01:29;1.50;99.90
51783;DHT22;37845;53.196;5.638;2022-12-04T01:03:55;1.60;99.90
51783;DHT22;37845;53.196;5.638;2022-12-04T01:06:22;1.50;99.90
51783;DHT22;37845;53.196;5.638;2022-12-04T01:08:49;1.50;99.90
51783;DHT22;37845;53.196;5.638;2022-12-04T01:11:15;1.50;99.90
51783;DHT22;37845;53.196;5.638;2022-12-04T01:13:40;1.50;99.90
51783;DHT22;37845;53.196;5.638;2022-12-04T01:16:06;1.50;99.90
51783;DHT22;37845;53.196;5.638;2022-12-04T01:18:31;1.50;99.90
51783;DHT22;37845;53.196;5.638;2022-12-04T01:20:57;1.50;99.90
51783;DHT22;37845;53.196;5.638;2022-12-04T01:23:23;1.50;99.90
51783;DHT22;37845;53.196;5.638;2022-12-04T01:25:49;1.40;99.90
51783;DHT22;37845;53.196;5.638;2022-12-04T01:28:15;1.40;99.90
51783;DHT22;37845;53.196;5.638;2022-12-04T01:30:40;1.50;99.90
51783;DHT22;37845;53.196;5.638;2022-12-04T01:33:06;1.40;99.90
51783;DHT22;37845;53.196;5.638;2022-12-04T01:35:31;2.40;99.90
51783;DHT22;37845;53.196;5.638;2022-12-04T01:37:57;1.40;99.90
51783;DHT22;37845;53.196;5.638;2022-12-04T01:40:22;2.10;99.90
51783;DHT22;37845;53.196;5.638;2022-12-04T01:42:48;1.40;99.90
51783;DHT22;37845;53.196;5.638;2022-12-04T01:48:01;1.40;99.90
51783;DHT22;37845;53.196;5.638;2022-12-04T01:50:29;1.40;99.90
51783;DHT22;37845;53.196;5.638;2022-12-04T01:52:55;2.00;99.90
51783;DHT22;37845;53.196;5.638;2022-12-04T01:55:21;2.10;99.90
51783;DHT22;37845;53.196;5.638;2022-12-04T01:57:46;2.60;99.90
51783;DHT22;37845;53.196;5.638;2022-12-04T02:00:12;2.40;99.90
51783;DHT22;37845;53.196;5.638;2022-12-04T02:02:40;1.40;99.90
51783;DHT22;37845;53.196;5.638;2022-12-04T02:05:08;1.40;99.90
51783;DHT22;37845;53.196;5.638;2022-12-04T02:07:34;1.40;99.90
51783;DHT22;37845;53.196;5.638;2022-12-04T02:10:00;1.40;99.90
51783;DHT22;37845;53.196;5.638;2022-12-04T02:15:03;1.40;99.90
51783;DHT22;37845;53.196;5.638;2022-12-04T02:17:35;1.40;99.90
51783;DHT22;37845;53.196;5.638;2022-12-04T02:28:04;1.20;99.90
51783;DHT22;37845;53.196;5.638;2022-12-04T02:30:32;1.20;99.90
51783;DHT22;37845;53.196;5.638;2022-12-04T02:35:28;2.40;99.90
51783;DHT22;37845;53.196;5.638;2022-12-04T02:37:57;1.70;99.90
51783;DHT22;37845;53.196;5.638;2022-12-04T02:40:25;1.10;99.90
51783;DHT22;37845;53.196;5.638;2022-12-04T02:43:26;2.70;99.90
51783;DHT22;37845;53.196;5.638;2022-12-04T02:45:45;1.10;99.90
51783;DHT22;37845;53.196;5.638;2022-12-04T02:48:11;1.10;99.90
51783;DHT22;37845;53.196;5.638;2022-12-04T02:50:39;1.00;99.90
51783;DHT22;37845;53.196;5.638;2022-12-04T02:56:08;1.00;99.90
51783;DHT22;37845;53.196;5.638;2022-12-04T02:58:42;1.00;99.90
51783;DHT22;37845;53.196;5.638;2022-12-04T03:01:10;1.00;99.90
51783;DHT22;37845;53.196;5.638;2022-12-04T03:04:06;1.00;99.90
51783;DHT22;37845;53.196;5.638;2022-12-04T03:06:33;1.00;99.90
51783;DHT22;37845;53.196;5.638;2022-12-04T03:09:08;1.00;99.90
51783;DHT22;37845;53.196;5.638;2022-12-04T03:11:36;1.00;99.90
51783;DHT22;37845;53.196;5.638;2022-12-04T03:14:16;1.00;99.90
51783;DHT22;37845;53.196;5.638;2022-12-04T03:16:43;1.10;99.90
51783;DHT22;37845;53.196;5.638;2022-12-04T03:19:15;2.50;99.90
51783;DHT22;37845;53.196;5.638;2022-12-04T03:21:48;1.00;99.90
51783;DHT22;37845;53.196;5.638;2022-12-04T03:24:22;1.00;99.90
51783;DHT22;37845;53.196;5.638;2022-12-04T03:26:59;1.00;99.90
51783;DHT22;37845;53.196;5.638;2022-12-04T03:29:34;1.00;99.90
51783;DHT22;37845;53.196;5.638;2022-12-04T03:32:12;1.00;99.90
51783;DHT22;37845;53.196;5.638;2022-12-04T03:37:07;0.90;99.90
51783;DHT22;37845;53.196;5.638;2022-12-04T03:39:36;0.90;99.90
51783;DHT22;37845;53.196;5.638;2022-12-04T03:42:07;0.90;99.90
51783;DHT22;37845;53.196;5.638;2022-12-04T03:44:39;2.40;99.90
51783;DHT22;37845;53.196;5.638;2022-12-04T03:52:18;0.90;99.90
51783;DHT22;37845;53.196;5.638;2022-12-04T03:54:49;0.90;99.90
51783;DHT22;37845;53.196;5.638;2022-12-04T03:57:19;0.90;99.90
51783;DHT22;37845;53.196;5.638;2022-12-04T04:00:06;0.90;99.90
51783;DHT22;37845;53.196;5.638;2022-12-04T04:02:33;0.90;99.90
51783;DHT22;37845;53.196;5.638;2022-12-04T04:05:00;0.90;99.90
51783;DHT22;37845;53.196;5.638;2022-12-04T04:09:56;0.90;99.90
51783;DHT22;37845;53.196;5.638;2022-12-04T04:12:24;2.40;99.90
51783;DHT22;37845;53.196;5.638;2022-12-04T04:14:56;1.00;99.90
51783;DHT22;37845;53.196;5.638;2022-12-04T04:17:42;0.80;99.90
51783;DHT22;37845;53.196;5.638;2022-12-04T04:20:37;1.00;99.90
51783;DHT22;37845;53.196;5.638;2022-12-04T04:23:24;1.10;99.90
51783;DHT22;37845;53.196;5.638;2022-12-04T04:26:10;1.10;99.90
51783;DHT22;37845;53.196;5.638;2022-12-04T04:28:39;1.10;99.90
51783;DHT22;37845;53.196;5.638;2022-12-04T04:33:31;1.40;99.90
51783;DHT22;37845;53.196;5.638;2022-12-04T04:36:04;2.10;99.90
51783;DHT22;37845;53.196;5.638;2022-12-04T04:38:35;1.10;99.90
51783;DHT22;37845;53.196;5.638;2022-12-04T04:41:07;2.70;99.90
51783;DHT22;37845;53.196;5.638;2022-12-04T04:43:35;1.20;99.90
51783;DHT22;37845;53.196;5.638;2022-12-04T04:46:04;1.20;99.90
51783;DHT22;37845;53.196;5.638;2022-12-04T04:48:30;1.20;99.90
51783;DHT22;37845;53.196;5.638;2022-12-04T04:50:57;1.20;99.90
51783;DHT22;37845;53.196;5.638;2022-12-04T04:53:34;1.20;99.90
51783;DHT22;37845;53.196;5.638;2022-12-04T04:56:01;1.20;99.90
51783;DHT22;37845;53.196;5.638;2022-12-04T04:58:28;1.20;99.90
51783;DHT22;37845;53.196;5.638;2022-12-04T05:03:22;1.20;99.90
51783;DHT22;37845;53.196;5.638;2022-12-04T05:05:48;2.20;99.90
51783;DHT22;37845;53.196;5.638;2022-12-04T05:08:13;1.20;99.90
51783;DHT22;37845;53.196;5.638;2022-12-04T05:10:39;2.50;99.90
51783;DHT22;37845;53.196;5.638;2022-12-04T05:13:04;1.20;99.90
51783;DHT22;37845;53.196;5.638;2022-12-04T05:15:30;1.20;99.90
51783;DHT22;37845;53.196;5.638;2022-12-04T05:17:55;2.20;99.90
51783;DHT22;37845;53.196;5.638;2022-12-04T05:20:21;1.20;99.90
51783;DHT22;37845;53.196;5.638;2022-12-04T05:22:46;1.40;99.90
51783;DHT22;37845;53.196;5.638;2022-12-04T05:25:12;2.00;99.90
51783;DHT22;37845;53.196;5.638;2022-12-04T05:27:38;1.20;99.90
51783;DHT22;37845;53.196;5.638;2022-12-04T05:30:03;1.20;99.90
51783;DHT22;37845;53.196;5.638;2022-12-04T05:32:29;1.20;99.90
51783;DHT22;37845;53.196;5.638;2022-12-04T05:34:55;1.20;99.90
51783;DHT22;37845;53.196;5.638;2022-12-04T05:37:21;2.70;99.90
51783;DHT22;37845;53.196;5.638;2022-12-04T05:39:47;1.70;99.90
51783;DHT22;37845;53.196;5.638;2022-12-04T05:42:13;2.10;99.90
51783;DHT22;37845;53.196;5.638;2022-12-04T05:44:38;1.20;99.90
51783;DHT22;37845;53.196;5.638;2022-12-04T05:47:04;1.20;99.90
51783;DHT22;37845;53.196;5.638;2022-12-04T05:49:30;1.10;99.90
51783;DHT22;37845;53.196;5.638;2022-12-04T05:51:56;1.20;99.90
51783;DHT22;37845;53.196;5.638;2022-12-04T05:54:22;1.40;99.90
51783;DHT22;37845;53.196;5.638;2022-12-04T05:56:47;1.20;99.90
51783;DHT22;37845;53.196;5.638;2022-12-04T05:59:13;2.00;99.90
51783;DHT22;37845;53.196;5.638;2022-12-04T06:01:38;1.20;99.90
51783;DHT22;37845;53.196;5.638;2022-12-04T06:04:04;2.10;99.90
51783;DHT22;37845;53.196;5.638;2022-12-04T06:06:30;1.20;99.90
51783;DHT22;37845;53.196;5.638;2022-12-04T06:08:56;1.20;99.90
51783;DHT22;37845;53.196;5.638;2022-12-04T06:11:26;1.20;99.90
51783;DHT22;37845;53.196;5.638;2022-12-04T06:13:52;1.10;99.90
51783;DHT22;37845;53.196;5.638;2022-12-04T06:16:22;2.40;99.90
51783;DHT22;37845;53.196;5.638;2022-12-04T06:18:49;1.10;99.90
51783;DHT22;37845;53.196;5.638;2022-12-04T06:21:15;2.80;99.90
51783;DHT22;37845;53.196;5.638;2022-12-04T06:23:40;1.10;99.90
51783;DHT22;37845;53.196;5.638;2022-12-04T06:26:06;2.40;99.90
51783;DHT22;37845;53.196;5.638;2022-12-04T06:28:33;1.10;99.90
51783;DHT22;37845;53.196;5.638;2022-12-04T06:31:02;2.30;99.90
51783;DHT22;37845;53.196;5.638;2022-12-04T06:33:28;1.10;99.90
51783;DHT22;37845;53.196;5.638;2022-12-04T06:36:08;1.10;99.90
51783;DHT22;37845;53.196;5.638;2022-12-04T06:38:35;1.10;99.90
51783;DHT22;37845;53.196;5.638;2022-12-04T06:41:04;1.80;99.90
51783;DHT22;37845;53.196;5.638;2022-12-04T06:43:30;1.10;99.90
51783;DHT22;37845;53.196;5.638;2022-12-04T06:46:02;1.10;99.90
51783;DHT22;37845;53.196;5.638;2022-12-04T06:48:28;1.10;99.90
51783;DHT22;37845;53.196;5.638;2022-12-04T06:51:01;1.10;99.90
51783;DHT22;37845;53.196;5.638;2022-12-04T06:53:27;1.10;99.90
51783;DHT22;37845;53.196;5.638;2022-12-04T06:55:55;2.50;99.90
51783;DHT22;37845;53.196;5.638;2022-12-04T06:58:20;1.20;99.90
51783;DHT22;37845;53.196;5.638;2022-12-04T07:00:46;1.80;99.90
51783;DHT22;37845;53.196;5.638;2022-12-04T07:03:12;1.10;99.90
51783;DHT22;37845;53.196;5.638;2022-12-04T07:05:37;1.20;99.90
51783;DHT22;37845;53.196;5.638;2022-12-04T07:08:03;0.70;99.90
51783;DHT22;37845;53.196;5.638;2022-12-04T07:10:28;1.20;99.90
51783;DHT22;37845;53.196;5.638;2022-12-04T07:12:54;2.80;99.90
51783;DHT22;37845;53.196;5.638;2022-12-04T07:15:20;2.60;99.90
51783;DHT22;37845;53.196;5.638;2022-12-04T07:17:45;1.50;99.90
51783;DHT22;37845;53.196;5.638;2022-12-04T07:20:11;1.70;99.90
51783;DHT22;37845;53.196;5.638;2022-12-04T07:22:37;1.20;99.90
51783;DHT22;37845;53.196;5.638;2022-12-04T07:25:02;1.20;99.90
51783;DHT22;37845;53.196;5.638;2022-12-04T07:27:29;1.10;99.90
51783;DHT22;37845;53.196;5.638;2022-12-04T07:29:54;1.10;99.90
51783;DHT22;37845;53.196;5.638;2022-12-04T07:32:21;2.00;99.90
51783;DHT22;37845;53.196;5.638;2022-12-04T07:34:46;1.10;99.90
51783;DHT22;37845;53.196;5.638;2022-12-04T07:37:12;2.30;99.90
51783;DHT22;37845;53.196;5.638;2022-12-04T07:39:37;1.10;99.90
51783;DHT22;37845;53.196;5.638;2022-12-04T07:42:03;1.10;99.90
51783;DHT22;37845;53.196;5.638;2022-12-04T07:44:31;1.10;99.90
51783;DHT22;37845;53.196;5.638;2022-12-04T07:46:57;1.10;99.90
51783;DHT22;37845;53.196;5.638;2022-12-04T07:49:23;1.10;99.90
51783;DHT22;37845;53.196;5.638;2022-12-04T07:51:48;1.10;99.90
51783;DHT22;37845;53.196;5.638;2022-12-04T07:54:14;1.20;99.90
51783;DHT22;37845;53.196;5.638;2022-12-04T07:56:40;1.10;99.90
51783;DHT22;37845;53.196;5.638;2022-12-04T07:59:05;2.90;99.90
51783;DHT22;37845;53.196;5.638;2022-12-04T08:01:31;1.20;99.90
51783;DHT22;37845;53.196;5.638;2022-12-04T08:03:58;1.20;99.90
51783;DHT22;37845;53.196;5.638;2022-12-04T08:06:24;1.20;99.90
51783;DHT22;37845;53.196;5.638;2022-12-04T08:08:50;1.20;99.90
51783;DHT22;37845;53.196;5.638;2022-12-04T08:11:17;1.20;99.90
51783;DHT22;37845;53.196;5.638;2022-12-04T08:13:43;2.90;99.90
51783;DHT22;37845;53.196;5.638;2022-12-04T08:16:10;1.20;99.90
51783;DHT22;37845;53.196;5.638;2022-12-04T08:18:36;1.10;99.90
51783;DHT22;37845;53.196;5.638;2022-12-04T08:21:03;2.10;99.90
51783;DHT22;37845;53.196;5.638;2022-12-04T08:23:29;1.20;99.90
51783;DHT22;37845;53.196;5.638;2022-12-04T08:25:56;1.20;99.90
51783;DHT22;37845;53.196;5.638;2022-12-04T08:28:22;1.70;99.90
51783;DHT22;37845;53.196;5.638;2022-12-04T08:30:47;1.20;99.90
51783;DHT22;37845;53.196;5.638;2022-12-04T08:33:13;2.30;99.90
51783;DHT22;37845;53.196;5.638;2022-12-04T08:35:38;1.60;99.90
51783;DHT22;37845;53.196;5.638;2022-12-04T08:38:04;1.80;99.90
51783;DHT22;37845;53.196;5.638;2022-12-04T08:40:29;1.30;99.90
51783;DHT22;37845;53.196;5.638;2022-12-04T08:42:55;2.40;99.90
51783;DHT22;37845;53.196;5.638;2022-12-04T08:45:21;1.30;99.90
51783;DHT22;37845;53.196;5.638;2022-12-04T08:47:46;2.30;99.90
51783;DHT22;37845;53.196;5.638;2022-12-04T08:50:12;1.40;99.90
51783;DHT22;37845;53.196;5.638;2022-12-04T08:52:38;1.30;99.90
51783;DHT22;37845;53.196;5.638;2022-12-04T08:55:03;2.40;99.90
51783;DHT22;37845;53.196;5.638;2022-12-04T08:57:29;1.30;99.90
51783;DHT22;37845;53.196;5.638;2022-12-04T08:59:54;1.40;99.90
51783;DHT22;37845;53.196;5.638;2022-12-04T09:02:20;1.30;99.90
51783;DHT22;37845;53.196;5.638;2022-12-04T09:04:46;1.40;99.90
51783;DHT22;37845;53.196;5.638;2022-12-04T09:07:11;2.50;99.90
51783;DHT22;37845;53.196;5.638;2022-12-04T09:09:37;1.40;99.90
51783;DHT22;37845;53.196;5.638;2022-12-04T09:12:02;1.40;99.90
51783;DHT22;37845;53.196;5.638;2022-12-04T09:14:28;1.40;99.90
51783;DHT22;37845;53.196;5.638;2022-12-04T09:16:54;1.40;99.90
51783;DHT22;37845;53.196;5.638;2022-12-04T09:19:19;1.40;99.90
51783;DHT22;37845;53.196;5.638;2022-12-04T09:21:45;2.70;99.90
51783;DHT22;37845;53.196;5.638;2022-12-04T09:24:11;1.70;99.90
51783;DHT22;37845;53.196;5.638;2022-12-04T09:26:37;1.40;99.90
51783;DHT22;37845;53.196;5.638;2022-12-04T09:29:03;1.70;99.90
51783;DHT22;37845;53.196;5.638;2022-12-04T09:31:29;1.40;99.90
51783;DHT22;37845;53.196;5.638;2022-12-04T09:33:56;2.30;99.90
51783;DHT22;37845;53.196;5.638;2022-12-04T09:36:22;1.50;99.90
51783;DHT22;37845;53.196;5.638;2022-12-04T09:38:48;1.40;99.90
51783;DHT22;37845;53.196;5.638;2022-12-04T09:41:23;1.50;99.90
51783;DHT22;37845;53.196;5.638;2022-12-04T09:43:52;1.50;99.90
51783;DHT22;37845;53.196;5.638;2022-12-04T09:46:22;1.50;99.90
51783;DHT22;37845;53.196;5.638;2022-12-04T09:48:50;2.80;99.90
51783;DHT22;37845;53.196;5.638;2022-12-04T09:51:17;1.60;99.90
51783;DHT22;37845;53.196;5.638;2022-12-04T09:53:50;2.60;99.90
51783;DHT22;37845;53.196;5.638;2022-12-04T09:56:17;1.60;99.90
51783;DHT22;37845;53.196;5.638;2022-12-04T09:58:48;2.20;99.90
51783;DHT22;37845;53.196;5.638;2022-12-04T10:01:43;2.50;99.90
51783;DHT22;37845;53.196;5.638;2022-12-04T10:04:09;1.60;99.90
51783;DHT22;37845;53.196;5.638;2022-12-04T10:09:08;1.70;99.90
51783;DHT22;37845;53.196;5.638;2022-12-04T10:19:20;1.80;99.90
51783;DHT22;37845;53.196;5.638;2022-12-04T10:26:48;1.80;99.90
51783;DHT22;37845;53.196;5.638;2022-12-04T10:29:17;3.50;99.90
51783;DHT22;37845;53.196;5.638;2022-12-04T10:31:43;2.00;99.90
51783;DHT22;37845;53.196;5.638;2022-12-04T10:34:15;3.40;99.90
51783;DHT22;37845;53.196;5.638;2022-12-04T10:36:41;1.90;99.90
51783;DHT22;37845;53.196;5.638;2022-12-04T10:39:09;1.90;99.90
51783;DHT22;37845;53.196;5.638;2022-12-04T10:44:04;2.40;99.90
51783;DHT22;37845;53.196;5.638;2022-12-04T10:46:30;1.90;99.90
51783;DHT22;37845;53.196;5.638;2022-12-04T10:49:00;2.00;99.90
51783;DHT22;37845;53.196;5.638;2022-12-04T10:51:27;2.00;99.90
51783;DHT22;37845;53.196;5.638;2022-12-04T10:53:54;2.00;99.90
51783;DHT22;37845;53.196;5.638;2022-12-04T10:56:21;2.00;99.90
51783;DHT22;37845;53.196;5.638;2022-12-04T10:59:20;2.00;99.90
51783;DHT22;37845;53.196;5.638;2022-12-04T11:01:39;2.10;99.90
51783;DHT22;37845;53.196;5.638;2022-12-04T11:04:05;3.00;99.90
51783;DHT22;37845;53.196;5.638;2022-12-04T11:06:32;2.10;99.90
51783;DHT22;37845;53.196;5.638;2022-12-04T11:08:57;3.30;99.90
51783;DHT22;37845;53.196;5.638;2022-12-04T11:11:28;2.90;99.90
51783;DHT22;37845;53.196;5.638;2022-12-04T11:18:55;2.30;99.90
51783;DHT22;37845;53.196;5.638;2022-12-04T11:21:25;2.30;99.90
51783;DHT22;37845;53.196;5.638;2022-12-04T11:23:51;2.40;99.90
51783;DHT22;37845;53.196;5.638;2022-12-04T11:26:27;2.40;99.90
51783;DHT22;37845;53.196;5.638;2022-12-04T11:28:53;4.00;99.90
51783;DHT22;37845;53.196;5.638;2022-12-04T11:31:20;2.50;99.90
51783;DHT22;37845;53.196;5.638;2022-12-04T11:33:53;3.80;99.90
51783;DHT22;37845;53.196;5.638;2022-12-04T11:38:49;2.60;99.90
51783;DHT22;37845;53.196;5.638;2022-12-04T11:41:28;2.60;99.90
51783;DHT22;37845;53.196;5.638;2022-12-04T11:43:54;2.60;99.90
51783;DHT22;37845;53.196;5.638;2022-12-04T11:46:20;2.60;99.90
51783;DHT22;37845;53.196;5.638;2022-12-04T11:48:46;3.00;99.90
51783;DHT22;37845;53.196;5.638;2022-12-04T11:54:09;2.60;99.90
51783;DHT22;37845;53.196;5.638;2022-12-04T11:56:38;2.70;99.90
51783;DHT22;37845;53.196;5.638;2022-12-04T12:07:02;2.70;99.90
51783;DHT22;37845;53.196;5.638;2022-12-04T12:09:37;2.70;99.90
51783;DHT22;37845;53.196;5.638;2022-12-04T12:12:13;2.70;99.90
51783;DHT22;37845;53.196;5.638;2022-12-04T12:17:14;2.70;99.90
51783;DHT22;37845;53.196;5.638;2022-12-04T12:22:31;3.50;99.90
51783;DHT22;37845;53.196;5.638;2022-12-04T12:25:05;2.70;99.90
51783;DHT22;37845;53.196;5.638;2022-12-04T12:30:08;2.70;99.90
51783;DHT22;37845;53.196;5.638;2022-12-04T12:35:18;2.70;99.90
51783;DHT22;37845;53.196;5.638;2022-12-04T12:37:47;2.80;99.90
51783;DHT22;37845;53.196;5.638;2022-12-04T12:40:14;3.10;99.90
51783;DHT22;37845;53.196;5.638;2022-12-04T12:42:47;2.80;99.90
51783;DHT22;37845;53.196;5.638;2022-12-04T12:47:55;2.70;99.90
51783;DHT22;37845;53.196;5.638;2022-12-04T12:50:25;2.80;99.90
51783;DHT22;37845;53.196;5.638;2022-12-04T12:52:57;4.30;99.90
51783;DHT22;37845;53.196;5.638;2022-12-04T12:57:53;2.80;99.90
51783;DHT22;37845;53.196;5.638;2022-12-04T13:00:21;4.20;99.90
51783;DHT22;37845;53.196;5.638;2022-12-04T13:03:04;3.70;99.90
51783;DHT22;37845;53.196;5.638;2022-12-04T13:05:34;2.80;99.90
51783;DHT22;37845;53.196;5.638;2022-12-04T13:08:04;2.80;99.90
51783;DHT22;37845;53.196;5.638;2022-12-04T13:10:32;2.70;99.90
51783;DHT22;37845;53.196;5.638;2022-12-04T13:13:01;2.70;99.90
51783;DHT22;37845;53.196;5.638;2022-12-04T13:15:36;2.80;99.90
51783;DHT22;37845;53.196;5.638;2022-12-04T13:18:03;2.80;99.90
51783;DHT22;37845;53.196;5.638;2022-12-04T13:20:32;2.80;99.90
51783;DHT22;37845;53.196;5.638;2022-12-04T13:25:51;2.80;99.90
51783;DHT22;37845;53.196;5.638;2022-12-04T13:41:05;2.80;99.90
51783;DHT22;37845;53.196;5.638;2022-12-04T13:46:19;2.80;99.90
51783;DHT22;37845;53.196;5.638;2022-12-04T13:48:46;2.80;99.90
51783;DHT22;37845;53.196;5.638;2022-12-04T13:53:37;2.80;99.90
51783;DHT22;37845;53.196;5.638;2022-12-04T13:56:05;4.50;99.90
51783;DHT22;37845;53.196;5.638;2022-12-04T13:58:32;2.80;99.90
51783;DHT22;37845;53.196;5.638;2022-12-04T14:00:58;2.90;99.90
51783;DHT22;37845;53.196;5.638;2022-12-04T14:05:57;2.90;99.90
51783;DHT22;37845;53.196;5.638;2022-12-04T14:08:25;3.00;99.90
51783;DHT22;37845;53.196;5.638;2022-12-04T14:13:22;3.00;99.90
51783;DHT22;37845;53.196;5.638;2022-12-04T14:15:48;3.00;99.90
51783;DHT22;37845;53.196;5.638;2022-12-04T14:18:27;4.10;99.90
51783;DHT22;37845;53.196;5.638;2022-12-04T14:20:57;3.10;99.90
51783;DHT22;37845;53.196;5.638;2022-12-04T14:23:25;3.00;99.90
51783;DHT22;37845;53.196;5.638;2022-12-04T14:25:52;3.40;99.90
51783;DHT22;37845;53.196;5.638;2022-12-04T14:30:56;3.10;99.90
51783;DHT22;37845;53.196;5.638;2022-12-04T14:33:24;3.10;99.90
51783;DHT22;37845;53.196;5.638;2022-12-04T14:35:55;3.30;99.90
51783;DHT22;37845;53.196;5.638;2022-12-04T14:38:22;4.80;99.90
51783;DHT22;37845;53.196;5.638;2022-12-04T14:40:52;3.30;99.90
51783;DHT22;37845;53.196;5.638;2022-12-04T14:43:24;3.20;99.90
51783;DHT22;37845;53.196;5.638;2022-12-04T14:53:32;3.20;99.90
51783;DHT22;37845;53.196;5.638;2022-12-04T14:58:28;3.20;99.90
51783;DHT22;37845;53.196;5.638;2022-12-04T15:03:30;3.30;99.90
51783;DHT22;37845;53.196;5.638;2022-12-04T15:06:05;3.30;99.90
51783;DHT22;37845;53.196;5.638;2022-12-04T15:08:32;3.30;99.90
51783;DHT22;37845;53.196;5.638;2022-12-04T15:10:57;4.60;99.90
51783;DHT22;37845;53.196;5.638;2022-12-04T15:13:42;3.40;99.90
51783;DHT22;37845;53.196;5.638;2022-12-04T15:16:08;3.40;99.90
51783;DHT22;37845;53.196;5.638;2022-12-04T15:18:35;3.40;99.90
51783;DHT22;37845;53.196;5.638;2022-12-04T15:21:01;4.20;99.90
51783;DHT22;37845;53.196;5.638;2022-12-04T15:23:37;3.40;99.90
51783;DHT22;37845;53.196;5.638;2022-12-04T15:26:12;3.40;99.90
51783;DHT22;37845;53.196;5.638;2022-12-04T15:28:42;3.40;99.90
51783;DHT22;37845;53.196;5.638;2022-12-04T15:31:11;3.40;99.90
51783;DHT22;37845;53.196;5.638;2022-12-04T15:33:43;3.40;99.90
51783;DHT22;37845;53.196;5.638;2022-12-04T15:36:12;3.40;99.90
51783;DHT22;37845;53.196;5.638;2022-12-04T15:38:39;4.60;99.90
51783;DHT22;37845;53.196;5.638;2022-12-04T15:41:05;4.50;99.90
51783;DHT22;37845;53.196;5.638;2022-12-04T15:43:39;3.40;99.90
51783;DHT22;37845;53.196;5.638;2022-12-04T15:46:22;3.40;99.90
51783;DHT22;37845;53.196;5.638;2022-12-04T15:48:49;3.40;99.90
51783;DHT22;37845;53.196;5.638;2022-12-04T15:51:15;3.40;99.90
51783;DHT22;37845;53.196;5.638;2022-12-04T15:53:43;5.00;99.90
51783;DHT22;37845;53.196;5.638;2022-12-04T15:56:15;3.30;99.90
51783;DHT22;37845;53.196;5.638;2022-12-04T15:58:41;4.90;99.90
51783;DHT22;37845;53.196;5.638;2022-12-04T16:01:15;3.30;99.90
51783;DHT22;37845;53.196;5.638;2022-12-04T16:08:40;3.30;99.90
51783;DHT22;37845;53.196;5.638;2022-12-04T16:11:07;3.30;99.90
51783;DHT22;37845;53.196;5.638;2022-12-04T16:14:30;3.70;99.90
51783;DHT22;37845;53.196;5.638;2022-12-04T16:16:38;3.30;99.90
51783;DHT22;37845;53.196;5.638;2022-12-04T16:19:40;3.30;99.90
51783;DHT22;37845;53.196;5.638;2022-12-04T16:21:58;3.30;99.90
51783;DHT22;37845;53.196;5.638;2022-12-04T16:24:24;3.30;99.90
51783;DHT22;37845;53.196;5.638;2022-12-04T16:26:51;4.40;99.90
51783;DHT22;37845;53.196;5.638;2022-12-04T16:29:19;3.40;99.90
51783;DHT22;37845;53.196;5.638;2022-12-04T16:31:44;4.70;99.90
51783;DHT22;37845;53.196;5.638;2022-12-04T16:34:11;4.60;99.90
51783;DHT22;37845;53.196;5.638;2022-12-04T16:36:36;3.30;99.90
51783;DHT22;37845;53.196;5.638;2022-12-04T16:39:02;4.80;99.90
51783;DHT22;37845;53.196;5.638;2022-12-04T16:41:28;3.30;99.90
51783;DHT22;37845;53.196;5.638;2022-12-04T16:43:54;4.20;99.90
51783;DHT22;37845;53.196;5.638;2022-12-04T16:46:22;3.70;99.90
51783;DHT22;37845;53.196;5.638;2022-12-04T16:48:48;3.30;99.90
51783;DHT22;37845;53.196;5.638;2022-12-04T16:51:15;4.30;99.90
51783;DHT22;37845;53.196;5.638;2022-12-04T16:53:40;3.30;99.90
51783;DHT22;37845;53.196;5.638;2022-12-04T16:56:07;3.30;99.90
51783;DHT22;37845;53.196;5.638;2022-12-04T16:58:32;3.30;99.90
51783;DHT22;37845;53.196;5.638;2022-12-04T17:00:58;3.30;99.90
51783;DHT22;37845;53.196;5.638;2022-12-04T17:03:27;3.40;99.90
51783;DHT22;37845;53.196;5.638;2022-12-04T17:05:54;3.40;99.90
51783;DHT22;37845;53.196;5.638;2022-12-04T17:08:20;3.40;99.90
51783;DHT22;37845;53.196;5.638;2022-12-04T17:10:46;3.40;99.90
51783;DHT22;37845;53.196;5.638;2022-12-04T17:13:11;3.40;99.90
51783;DHT22;37845;53.196;5.638;2022-12-04T17:15:37;3.90;99.90
51783;DHT22;37845;53.196;5.638;2022-12-04T17:18:03;4.50;99.90
51783;DHT22;37845;53.196;5.638;2022-12-04T17:20:28;3.40;99.90
51783;DHT22;37845;53.196;5.638;2022-12-04T17:22:56;3.40;99.90
51783;DHT22;37845;53.196;5.638;2022-12-04T17:25:23;3.40;99.90
51783;DHT22;37845;53.196;5.638;2022-12-04T17:27:48;4.50;99.90
51783;DHT22;37845;53.196;5.638;2022-12-04T17:30:14;4.20;99.90
51783;DHT22;37845;53.196;5.638;2022-12-04T17:32:40;3.40;99.90
51783;DHT22;37845;53.196;5.638;2022-12-04T17:35:06;3.40;99.90
51783;DHT22;37845;53.196;5.638;2022-12-04T17:37:33;3.40;99.90
51783;DHT22;37845;53.196;5.638;2022-12-04T17:39:59;3.90;99.90
51783;DHT22;37845;53.196;5.638;2022-12-04T17:42:25;3.50;99.90
51783;DHT22;37845;53.196;5.638;2022-12-04T17:44:50;4.80;99.90
51783;DHT22;37845;53.196;5.638;2022-12-04T17:47:16;3.50;99.90
51783;DHT22;37845;53.196;5.638;2022-12-04T17:49:44;4.20;99.90
51783;DHT22;37845;53.196;5.638;2022-12-04T17:52:13;3.60;99.90
51783;DHT22;37845;53.196;5.638;2022-12-04T17:54:38;3.50;99.90
51783;DHT22;37845;53.196;5.638;2022-12-04T17:57:04;3.50;99.90
51783;DHT22;37845;53.196;5.638;2022-12-04T17:59:30;3.50;99.90
51783;DHT22;37845;53.196;5.638;2022-12-04T18:01:58;3.50;99.90